createdAt,value
2023-04-16T00:01:44.543Z,101664.73
2023-04-16T00:04:12.722Z,101666.63
2023-04-16T00:06:41.113Z,101664.12
2023-04-16T00:09:09.208Z,101666.52
2023-04-16T00:11:37.308Z,101664.77
2023-04-16T00:14:05.472Z,101662.55
2023-04-16T00:16:33.542Z,101669.14
2023-04-16T00:19:01.536Z,101668.39
2023-04-16T00:21:29.676Z,101670.65
2023-04-16T00:23:57.653Z,101666.85
2023-04-16T00:26:25.572Z,101667.76
2023-04-16T00:28:53.891Z,101668.96
2023-04-16T00:31:32.810Z,101672.80
2023-04-16T00:34:01.110Z,101669.59
2023-04-16T00:36:29.263Z,101673.07
2023-04-16T00:38:57.576Z,101670.96
2023-04-16T00:41:27.035Z,101666.68
2023-04-16T00:43:55.072Z,101667.39
2023-04-16T00:46:25.012Z,101668.06
2023-04-16T00:48:54.388Z,101669.29
2023-04-16T00:51:22.940Z,101669.64
2023-04-16T00:53:51.149Z,101669.95
2023-04-16T00:56:20.540Z,101671.34
2023-04-16T00:58:49.804Z,101672.00
2023-04-16T01:01:17.860Z,101673.36
2023-04-16T01:03:47.981Z,101673.17
2023-04-16T01:06:19.230Z,101674.77
2023-04-16T01:08:48.829Z,101676.48
2023-04-16T01:11:17.203Z,101670.73
2023-04-16T01:13:45.283Z,101670.00
2023-04-16T01:16:13.504Z,101667.55
2023-04-16T01:18:41.626Z,101665.06
2023-04-16T01:21:10.662Z,101663.98
2023-04-16T01:23:38.634Z,101666.36
2023-04-16T01:26:06.636Z,101663.58
2023-04-16T01:28:34.615Z,101664.84
2023-04-16T01:31:02.614Z,101663.84
2023-04-16T01:33:44.323Z,101661.23
2023-04-16T01:36:12.993Z,101663.88
2023-04-16T01:38:41.028Z,101666.84
2023-04-16T01:41:08.965Z,101668.73
2023-04-16T01:43:38.466Z,101667.77
2023-04-16T01:46:18.885Z,101668.21
2023-04-16T01:48:47.543Z,101670.91
2023-04-16T01:51:15.517Z,101671.06
2023-04-16T01:53:43.499Z,101669.71
2023-04-16T01:56:11.553Z,101667.09
2023-04-16T01:58:40.044Z,101672.51
2023-04-16T02:01:09.277Z,101672.33
2023-04-16T02:03:38.113Z,101670.60
2023-04-16T02:06:06.264Z,101669.02
2023-04-16T02:08:34.195Z,101670.57
2023-04-16T02:11:02.195Z,101669.48
2023-04-16T02:13:30.613Z,101669.26
2023-04-16T02:15:58.926Z,101669.37
2023-04-16T02:18:40.823Z,101672.58
2023-04-16T02:21:08.959Z,101668.90
2023-04-16T02:23:37.630Z,101669.44
2023-04-16T02:26:05.700Z,101671.23
2023-04-16T02:28:33.989Z,101669.67
2023-04-16T02:31:02.220Z,101673.90
2023-04-16T02:33:32.877Z,101676.52
2023-04-16T02:36:02.895Z,101678.42
2023-04-16T02:38:31.003Z,101677.41
2023-04-16T02:40:59.530Z,101678.08
2023-04-16T02:43:27.946Z,101676.72
2023-04-16T02:45:55.966Z,101676.36
2023-04-16T02:48:23.886Z,101678.35
2023-04-16T02:50:51.781Z,101680.06
2023-04-16T02:53:19.902Z,101684.07
2023-04-16T02:55:55.513Z,101681.10
2023-04-16T02:58:25.570Z,101686.58
2023-04-16T03:00:54.669Z,101689.12
2023-04-16T03:03:22.906Z,101688.23
2023-04-16T03:05:51.039Z,101692.38
2023-04-16T03:08:19.285Z,101692.36
2023-04-16T03:10:47.460Z,101693.20
2023-04-16T03:13:15.734Z,101695.43
2023-04-16T03:15:50.199Z,101692.23
2023-04-16T03:18:18.301Z,101695.39
2023-04-16T03:20:46.268Z,101694.00
2023-04-16T03:23:14.372Z,101699.73
2023-04-16T03:25:43.777Z,101696.77
2023-04-16T03:28:12.103Z,101697.61
2023-04-16T03:30:40.314Z,101699.83
2023-04-16T03:33:09.313Z,101709.26
2023-04-16T03:35:37.288Z,101703.20
2023-04-16T03:38:05.442Z,101705.25
2023-04-16T03:40:33.520Z,101710.13
2023-04-16T03:43:01.703Z,101712.92
2023-04-16T03:45:29.732Z,101716.23
2023-04-16T03:47:57.917Z,101721.56
2023-04-16T03:50:26.742Z,101719.98
2023-04-16T03:52:54.954Z,101721.20
2023-04-16T03:55:22.980Z,101724.89
2023-04-16T03:57:51.096Z,101722.08
2023-04-16T04:00:19.208Z,101725.69
2023-04-16T04:02:53.530Z,101729.34
2023-04-16T04:05:21.895Z,101731.22
2023-04-16T04:07:50.383Z,101736.03
2023-04-16T04:10:18.573Z,101740.52
2023-04-16T04:12:46.658Z,101739.08
2023-04-16T04:15:14.835Z,101742.05
2023-04-16T04:17:43.798Z,101742.41
2023-04-16T04:20:12.393Z,101744.70
2023-04-16T04:22:41.986Z,101745.05
2023-04-16T04:25:13.194Z,101751.32
2023-04-16T04:27:41.154Z,101753.02
2023-04-16T04:30:10.202Z,101752.80
2023-04-16T04:32:38.382Z,101750.69
2023-04-16T04:35:07.108Z,101751.74
2023-04-16T04:37:35.220Z,101754.58
2023-04-16T04:40:09.905Z,101756.34
2023-04-16T04:42:38.238Z,101757.27
2023-04-16T04:45:07.205Z,101758.71
2023-04-16T04:47:35.593Z,101756.12
2023-04-16T04:50:04.235Z,101757.17
2023-04-16T04:52:32.641Z,101758.23
2023-04-16T04:55:01.911Z,101759.98
2023-04-16T04:57:31.017Z,101762.39
2023-04-16T04:59:59.130Z,101763.11
2023-04-16T05:02:28.812Z,101764.58
2023-04-16T05:04:57.014Z,101765.33
2023-04-16T05:07:25.112Z,101769.16
2023-04-16T05:09:53.688Z,101768.46
2023-04-16T05:12:21.728Z,101770.71
2023-04-16T05:14:49.806Z,101773.29
2023-04-16T05:17:17.711Z,101771.23
2023-04-16T05:19:45.728Z,101770.79
2023-04-16T05:22:13.786Z,101776.76
2023-04-16T05:24:41.771Z,101778.51
2023-04-16T05:27:09.831Z,101778.36
2023-04-16T05:29:37.684Z,101780.02
2023-04-16T05:32:05.882Z,101782.09
2023-04-16T05:34:33.841Z,101785.53
2023-04-16T05:37:01.752Z,101790.13
2023-04-16T05:39:29.721Z,101788.05
2023-04-16T05:41:57.662Z,101791.70
2023-04-16T05:44:26.059Z,101789.78
2023-04-16T05:46:54.110Z,101792.40
2023-04-16T05:49:22.369Z,101793.81
2023-04-16T05:51:50.940Z,101797.21
2023-04-16T05:54:19.092Z,101798.80
2023-04-16T05:56:47.001Z,101796.12
2023-04-16T05:59:15.057Z,101797.44
2023-04-16T06:01:42.965Z,101802.04
2023-04-16T06:04:11.188Z,101801.36
2023-04-16T06:06:40.310Z,101803.42
2023-04-16T06:09:08.621Z,101802.66
2023-04-16T06:11:36.914Z,101803.24
2023-04-16T06:14:04.917Z,101806.61
2023-04-16T06:16:32.920Z,101807.56
2023-04-16T06:19:00.906Z,101814.98
2023-04-16T06:21:29.282Z,101814.37
2023-04-16T06:23:57.363Z,101820.86
2023-04-16T06:26:25.986Z,101820.50
2023-04-16T06:28:53.965Z,101823.78
2023-04-16T06:31:22.443Z,101824.47
2023-04-16T06:33:50.704Z,101822.94
2023-04-16T06:36:18.671Z,101826.96
2023-04-16T06:38:46.746Z,101829.20
2023-04-16T06:41:14.897Z,101827.66
2023-04-16T06:43:42.801Z,101830.13
2023-04-16T06:46:11.182Z,101828.40
2023-04-16T06:48:39.345Z,101832.02
2023-04-16T06:51:07.434Z,101830.66
2023-04-16T06:53:37.589Z,101834.00
2023-04-16T06:56:06.118Z,101833.75
2023-04-16T06:58:34.287Z,101830.41
2023-04-16T07:01:02.916Z,101833.22
2023-04-16T07:03:31.891Z,101835.66
2023-04-16T07:06:00.011Z,101840.13
2023-04-16T07:08:28.014Z,101841.10
2023-04-16T07:10:56.241Z,101834.79
2023-04-16T07:13:24.572Z,101832.13
2023-04-16T07:15:52.474Z,101837.45
2023-04-16T07:18:20.896Z,101836.15
2023-04-16T07:20:49.007Z,101837.61
2023-04-16T07:23:16.977Z,101834.84
2023-04-16T07:25:45.021Z,101834.33
2023-04-16T07:28:13.174Z,101830.21
2023-04-16T07:30:41.160Z,101832.37
2023-04-16T07:33:09.534Z,101838.67
2023-04-16T07:35:37.565Z,101836.72
2023-04-16T07:38:06.172Z,101841.58
2023-04-16T07:40:34.163Z,101843.46
2023-04-16T07:43:02.165Z,101844.83
2023-04-16T07:45:30.119Z,101847.04
2023-04-16T07:47:58.245Z,101847.31
2023-04-16T07:50:26.373Z,101846.20
2023-04-16T07:52:54.390Z,101849.52
2023-04-16T07:55:22.562Z,101847.62
2023-04-16T07:57:50.638Z,101847.45
2023-04-16T08:00:18.603Z,101853.73
2023-04-16T08:02:46.847Z,101850.21
2023-04-16T08:05:14.922Z,101855.64
2023-04-16T08:07:43.051Z,101860.52
2023-04-16T08:10:11.317Z,101861.52
2023-04-16T08:12:39.577Z,101862.35
2023-04-16T08:15:08.582Z,101862.68
2023-04-16T08:17:37.813Z,101863.84
2023-04-16T08:20:06.777Z,101866.27
2023-04-16T08:22:34.801Z,101865.91
2023-04-16T08:25:04.461Z,101865.40
2023-04-16T08:27:32.510Z,101868.87
2023-04-16T08:30:00.576Z,101867.11
2023-04-16T08:32:28.858Z,101865.14
2023-04-16T08:34:57.943Z,101869.52
2023-04-16T08:37:26.699Z,101869.38
2023-04-16T08:39:54.820Z,101868.36
2023-04-16T08:42:33.850Z,101868.24
2023-04-16T08:45:16.801Z,101872.30
2023-04-16T08:47:52.137Z,101872.69
2023-04-16T08:50:24.969Z,101879.07
2023-04-16T08:52:59.368Z,101881.39
2023-04-16T08:55:37.287Z,101881.98
2023-04-16T08:58:29.220Z,101883.24
2023-04-16T09:00:57.356Z,101890.28
2023-04-16T09:03:25.480Z,101889.43
2023-04-16T09:05:55.706Z,101895.48
2023-04-16T09:08:24.281Z,101890.02
2023-04-16T09:10:53.068Z,101895.95
2023-04-16T09:13:23.597Z,101895.48
2023-04-16T09:15:55.002Z,101898.85
2023-04-16T09:18:23.587Z,101898.56
2023-04-16T09:20:52.200Z,101903.35
2023-04-16T09:23:20.160Z,101897.33
2023-04-16T09:25:48.129Z,101901.20
2023-04-16T09:28:39.140Z,101903.36
2023-04-16T09:31:11.823Z,101905.20
2023-04-16T09:33:40.581Z,101911.41
2023-04-16T09:36:09.548Z,101912.91
2023-04-16T09:38:52.425Z,101909.70
2023-04-16T09:41:26.053Z,101915.47
2023-04-16T09:44:01.069Z,101913.55
2023-04-16T09:46:36.254Z,101921.58
2023-04-16T09:49:13.493Z,101921.40
2023-04-16T09:51:42.412Z,101918.60
2023-04-16T09:54:10.609Z,101923.70
2023-04-16T09:56:46.683Z,101922.16
2023-04-16T09:59:18.676Z,101925.67
2023-04-16T10:01:47.193Z,101926.58
2023-04-16T10:04:16.126Z,101930.23
2023-04-16T10:06:44.815Z,101928.83
2023-04-16T10:09:12.954Z,101937.02
2023-04-16T10:11:41.820Z,101938.23
2023-04-16T10:14:10.079Z,101939.23
2023-04-16T10:16:41.211Z,101943.05
2023-04-16T10:19:09.592Z,101942.98
2023-04-16T10:21:37.809Z,101940.83
2023-04-16T10:24:06.664Z,101946.73
2023-04-16T10:26:36.357Z,101944.80
2023-04-16T10:29:06.851Z,101946.98
2023-04-16T10:31:36.805Z,101945.35
2023-04-16T10:34:06.286Z,101947.92
2023-04-16T10:36:37.657Z,101947.21
2023-04-16T10:39:12.177Z,101950.34
2023-04-16T10:41:42.990Z,101953.45
2023-04-16T10:44:11.446Z,101952.35
2023-04-16T10:46:44.247Z,101953.16
2023-04-16T10:49:17.891Z,101957.83
2023-04-16T10:51:58.821Z,101959.21
2023-04-16T10:54:29.112Z,101962.84
2023-04-16T10:56:59.581Z,101962.20
2023-04-16T10:59:32.501Z,101961.38
2023-04-16T11:02:06.217Z,101964.88
2023-04-16T11:04:36.882Z,101965.42
2023-04-16T11:07:19.592Z,101967.58
2023-04-16T11:09:53.600Z,101966.54
2023-04-16T11:12:29.281Z,101965.87
2023-04-16T11:15:06.047Z,101969.38
2023-04-16T11:17:37.515Z,101969.05
2023-04-16T11:20:13.587Z,101969.79
2023-04-16T11:22:53.255Z,101975.23
2023-04-16T11:25:25.665Z,101979.59
2023-04-16T11:27:54.130Z,101979.40
2023-04-16T11:30:34.197Z,101981.66
2023-04-16T11:33:07.999Z,101983.05
2023-04-16T11:35:36.272Z,101982.52
2023-04-16T11:38:06.155Z,101986.71
2023-04-16T11:40:35.165Z,101981.65
2023-04-16T11:43:05.389Z,101985.68
2023-04-16T11:45:33.313Z,101987.78
2023-04-16T11:48:01.389Z,101988.02
2023-04-16T11:50:29.379Z,101988.42
2023-04-16T11:53:04.831Z,101988.11
2023-04-16T11:55:32.916Z,101989.50
2023-04-16T11:58:13.119Z,101994.94
2023-04-16T12:00:41.959Z,101996.67
2023-04-16T12:03:10.125Z,102002.61
2023-04-16T12:05:39.884Z,102001.21
2023-04-16T12:08:09.871Z,102003.14
2023-04-16T12:10:59.724Z,102003.48
2023-04-16T12:13:27.813Z,102002.95
2023-04-16T12:15:57.329Z,101998.27
2023-04-16T12:18:28.965Z,102002.96
2023-04-16T12:20:57.143Z,102003.11
2023-04-16T12:23:30.848Z,102003.63
2023-04-16T12:26:02.798Z,102005.19
2023-04-16T12:28:33.826Z,102005.02
2023-04-16T12:31:03.173Z,102007.64
2023-04-16T12:33:31.525Z,102009.77
2023-04-16T12:35:59.482Z,102009.61
2023-04-16T12:38:28.764Z,102007.88
2023-04-16T12:40:57.878Z,102009.45
2023-04-16T12:43:26.633Z,102007.90
2023-04-16T12:45:54.698Z,102007.94
2023-04-16T12:48:22.712Z,102008.67
2023-04-16T12:50:54.367Z,102003.84
2023-04-16T12:53:22.636Z,102001.95
2023-04-16T12:55:50.720Z,102001.08
2023-04-16T12:58:18.740Z,102001.39
2023-04-16T13:00:46.753Z,102007.62
2023-04-16T13:03:15.333Z,102014.42
2023-04-16T13:05:43.607Z,102013.33
2023-04-16T13:08:11.590Z,102013.30
2023-04-16T13:10:39.530Z,102015.52
2023-04-16T13:13:07.484Z,102016.15
2023-04-16T13:15:35.570Z,102016.58
2023-04-16T13:18:03.716Z,102017.86
2023-04-16T13:20:33.258Z,102019.73
2023-04-16T13:23:01.209Z,102020.25
2023-04-16T13:25:30.530Z,102019.05
2023-04-16T13:27:58.702Z,102020.11
2023-04-16T13:30:29.351Z,102022.06
2023-04-16T13:32:57.410Z,102025.38
2023-04-16T13:35:26.642Z,102024.70
2023-04-16T13:37:54.637Z,102024.39
2023-04-16T13:40:22.852Z,102024.77
2023-04-16T13:42:50.797Z,102025.35
2023-04-16T13:45:20.515Z,102028.36
2023-04-16T13:47:48.515Z,102028.56
2023-04-16T13:50:16.660Z,102026.85
2023-04-16T13:52:44.650Z,102028.27
2023-04-16T13:55:14.262Z,102026.96
2023-04-16T13:57:42.307Z,102024.78
2023-04-16T14:00:13.261Z,102029.62
2023-04-16T14:02:46.136Z,102032.52
2023-04-16T14:05:14.434Z,102031.77
2023-04-16T14:07:42.407Z,102031.70
2023-04-16T14:10:11.406Z,102028.63
2023-04-16T14:12:39.597Z,102031.83
2023-04-16T14:15:09.713Z,102027.91
2023-04-16T14:17:37.820Z,102033.12
2023-04-16T14:20:07.029Z,102029.17
2023-04-16T14:22:35.104Z,102027.90
2023-04-16T14:25:03.365Z,102033.78
2023-04-16T14:27:31.700Z,102030.70
2023-04-16T14:29:59.991Z,102033.59
2023-04-16T14:32:28.138Z,102040.50
2023-04-16T14:34:56.347Z,102037.52
2023-04-16T14:37:24.484Z,102037.49
2023-04-16T14:39:52.427Z,102037.98
2023-04-16T14:42:20.894Z,102038.40
2023-04-16T14:44:48.867Z,102036.95
2023-04-16T14:47:17.020Z,102040.55
2023-04-16T14:49:44.987Z,102040.35
2023-04-16T14:52:13.059Z,102043.73
2023-04-16T14:54:41.246Z,102046.36
2023-04-16T14:57:09.306Z,102049.67
2023-04-16T14:59:37.318Z,102053.29
2023-04-16T15:02:05.708Z,102050.95
2023-04-16T15:04:33.944Z,102048.77
2023-04-16T15:07:01.997Z,102058.02
2023-04-16T15:09:30.018Z,102059.01
2023-04-16T15:11:58.205Z,102059.14
2023-04-16T15:14:26.292Z,102061.61
2023-04-16T15:16:54.311Z,102058.88
2023-04-16T15:19:22.510Z,102063.38
2023-04-16T15:21:50.601Z,102060.96
2023-04-16T15:24:18.603Z,102066.20
2023-04-16T15:26:46.662Z,102071.54
2023-04-16T15:29:14.711Z,102070.33
2023-04-16T15:31:42.806Z,102073.14
2023-04-16T15:34:11.336Z,102073.73
2023-04-16T15:36:39.691Z,102074.97
2023-04-16T15:39:07.768Z,102076.92
2023-04-16T15:41:46.864Z,102079.19
2023-04-16T15:44:22.144Z,102080.54
2023-04-16T15:46:50.236Z,102082.84
2023-04-16T15:49:18.450Z,102086.30
2023-04-16T15:51:46.422Z,102088.35
2023-04-16T15:54:14.406Z,102086.58
2023-04-16T15:56:42.618Z,102086.91
2023-04-16T15:59:10.779Z,102087.39
2023-04-16T16:01:39.164Z,102088.94
2023-04-16T16:04:08.191Z,102089.46
2023-04-16T16:06:38.270Z,102091.39
2023-04-16T16:09:06.493Z,102091.77
2023-04-16T16:11:34.664Z,102093.55
2023-04-16T16:14:02.610Z,102094.28
2023-04-16T16:16:30.969Z,102093.45
2023-04-16T16:18:58.943Z,102093.84
2023-04-16T16:21:28.794Z,102093.33
2023-04-16T16:23:57.133Z,102096.62
2023-04-16T16:26:25.450Z,102100.77
2023-04-16T16:28:53.406Z,102098.50
2023-04-16T16:31:21.327Z,102102.61
2023-04-16T16:33:49.300Z,102103.79
2023-04-16T16:36:17.670Z,102103.97
2023-04-16T16:38:47.551Z,102105.52
2023-04-16T16:41:15.598Z,102108.73
2023-04-16T16:43:43.501Z,102107.45
2023-04-16T16:46:11.599Z,102113.98
2023-04-16T16:48:39.721Z,102117.89
2023-04-16T16:51:10.824Z,102120.94
2023-04-16T16:53:38.867Z,102122.95
2023-04-16T16:56:06.939Z,102131.61
2023-04-16T16:58:35.104Z,102126.99
2023-04-16T17:01:03.303Z,102133.04
2023-04-16T17:03:31.407Z,102132.31
2023-04-16T17:05:59.490Z,102135.35
2023-04-16T17:08:28.288Z,102134.90
2023-04-16T17:10:56.549Z,102134.65
2023-04-16T17:13:25.305Z,102131.70
2023-04-16T17:15:53.221Z,102131.00
2023-04-16T17:18:21.275Z,102133.05
2023-04-16T17:20:49.243Z,102129.36
2023-04-16T17:23:17.422Z,102128.76
2023-04-16T17:25:45.557Z,102130.08
2023-04-16T17:28:13.505Z,102133.32
2023-04-16T17:30:41.838Z,102133.08
2023-04-16T17:33:09.943Z,102136.84
2023-04-16T17:35:40.609Z,102138.33
2023-04-16T17:38:08.632Z,102140.52
2023-04-16T17:40:36.672Z,102143.46
2023-04-16T17:43:04.902Z,102141.69
2023-04-16T17:45:33.765Z,102147.20
2023-04-16T17:48:01.972Z,102146.92
2023-04-16T17:50:30.103Z,102148.40
2023-04-16T17:53:03.511Z,102151.49
2023-04-16T17:55:31.771Z,102154.73
2023-04-16T17:58:00.846Z,102152.17
2023-04-16T18:00:28.794Z,102161.39
2023-04-16T18:02:57.906Z,102162.84
2023-04-16T18:05:26.289Z,102164.42
2023-04-16T18:07:55.634Z,102166.88
2023-04-16T18:10:23.758Z,102168.65
2023-04-16T18:12:52.010Z,102172.64
2023-04-16T18:15:19.967Z,102174.87
2023-04-16T18:17:48.026Z,102175.16
2023-04-16T18:20:19.633Z,102178.45
2023-04-16T18:22:47.725Z,102181.73
2023-04-16T18:25:16.248Z,102185.05
2023-04-16T18:27:44.988Z,102189.39
2023-04-16T18:30:19.785Z,102191.30
2023-04-16T18:33:16.551Z,102195.08
2023-04-16T18:35:40.573Z,102199.87
2023-04-16T18:38:08.537Z,102203.73
2023-04-16T18:40:37.576Z,102205.23
2023-04-16T18:43:05.940Z,102203.73
2023-04-16T18:45:34.461Z,102204.16
2023-04-16T18:48:03.473Z,102204.21
2023-04-16T18:50:32.064Z,102201.13
2023-04-16T18:53:00.068Z,102201.10
2023-04-16T18:55:28.137Z,102206.41
2023-04-16T18:57:56.186Z,102204.42
2023-04-16T19:00:24.312Z,102207.73
2023-04-16T19:02:52.482Z,102207.35
2023-04-16T19:05:21.341Z,102209.73
2023-04-16T19:07:49.635Z,102212.50
2023-04-16T19:10:17.709Z,102212.35
2023-04-16T19:12:45.679Z,102212.19
2023-04-16T19:15:14.949Z,102207.81
2023-04-16T19:17:43.062Z,102211.77
2023-04-16T19:20:11.686Z,102210.73
2023-04-16T19:22:39.797Z,102210.48
2023-04-16T19:25:08.436Z,102217.03
2023-04-16T19:27:36.511Z,102220.34
2023-04-16T19:30:06.387Z,102217.75
2023-04-16T19:32:34.371Z,102221.07
2023-04-16T19:35:03.443Z,102221.05
2023-04-16T19:37:31.336Z,102222.52
2023-04-16T19:39:59.870Z,102222.17
2023-04-16T19:42:27.816Z,102224.48
2023-04-16T19:44:55.872Z,102224.70
2023-04-16T19:47:24.080Z,102222.89
2023-04-16T19:49:52.220Z,102223.93
2023-04-16T19:52:20.192Z,102227.70
2023-04-16T19:54:48.183Z,102225.73
2023-04-16T19:57:16.256Z,102223.23
2023-04-16T19:59:44.202Z,102220.72
2023-04-16T20:02:12.187Z,102223.02
2023-04-16T20:04:40.441Z,102223.25
2023-04-16T20:07:08.534Z,102219.18
2023-04-16T20:09:36.708Z,102217.40
2023-04-16T20:12:04.881Z,102216.00
2023-04-16T20:14:32.848Z,102217.23
2023-04-16T20:17:02.030Z,102215.53
2023-04-16T20:19:37.995Z,102214.30
2023-04-16T20:22:06.792Z,102213.38
2023-04-16T20:24:34.713Z,102215.31
2023-04-16T20:27:02.612Z,102210.15
2023-04-16T20:29:30.833Z,102206.88
2023-04-16T20:31:58.761Z,102206.77
2023-04-16T20:34:27.840Z,102204.57
2023-04-16T20:36:55.989Z,102209.45
2023-04-16T20:39:24.546Z,102206.73
2023-04-16T20:41:56.825Z,102208.11
2023-04-16T20:44:26.406Z,102208.77
2023-04-16T20:46:56.467Z,102209.98
2023-04-16T20:49:25.131Z,102211.36
2023-04-16T20:51:53.370Z,102214.49
2023-04-16T20:54:21.438Z,102211.04
2023-04-16T20:56:50.430Z,102212.48
2023-04-16T20:59:18.375Z,102212.02
2023-04-16T21:01:47.792Z,102216.25
2023-04-16T21:04:16.759Z,102211.76
2023-04-16T21:06:44.755Z,102213.24
2023-04-16T21:09:13.456Z,102216.02
2023-04-16T21:11:41.526Z,102214.66
2023-04-16T21:14:09.587Z,102216.38
2023-04-16T21:16:37.555Z,102220.16
2023-04-16T21:19:05.708Z,102219.61
2023-04-16T21:21:33.789Z,102220.48
2023-04-16T21:24:01.773Z,102221.69
2023-04-16T21:26:29.775Z,102220.48
2023-04-16T21:28:57.689Z,102215.64
2023-04-16T21:31:25.698Z,102217.16
2023-04-16T21:33:53.926Z,102217.79
2023-04-16T21:36:21.911Z,102217.69
2023-04-16T21:38:49.874Z,102221.55
2023-04-16T21:41:17.856Z,102215.17
2023-04-16T21:43:46.023Z,102216.08
2023-04-16T21:46:14.000Z,102221.52
2023-04-16T21:48:41.992Z,102220.50
2023-04-16T21:51:10.232Z,102219.70
2023-04-16T21:53:39.181Z,102221.80
2023-04-16T21:56:07.655Z,102220.78
2023-04-16T21:58:35.739Z,102223.77
2023-04-16T22:01:03.698Z,102222.72
2023-04-16T22:03:33.611Z,102222.38
2023-04-16T22:06:02.018Z,102224.33
2023-04-16T22:08:30.427Z,102222.46
2023-04-16T22:10:59.892Z,102223.21
2023-04-16T22:13:30.156Z,102226.73
2023-04-16T22:16:01.559Z,102231.83
2023-04-16T22:18:32.908Z,102230.83
2023-04-16T22:21:01.489Z,102234.17
2023-04-16T22:23:29.585Z,102237.54
2023-04-16T22:25:57.525Z,102236.73
2023-04-16T22:28:25.549Z,102234.27
2023-04-16T22:30:53.487Z,102236.02
2023-04-16T22:33:21.563Z,102236.04
2023-04-16T22:35:49.553Z,102237.45
2023-04-16T22:38:17.454Z,102235.00
2023-04-16T22:40:49.046Z,102238.63
2023-04-16T22:43:17.858Z,102240.16
2023-04-16T22:45:46.454Z,102241.22
2023-04-16T22:48:14.572Z,102239.70
2023-04-16T22:50:48.631Z,102244.57
2023-04-16T22:53:16.667Z,102241.39
2023-04-16T22:55:44.741Z,102243.20
2023-04-16T22:58:12.718Z,102246.88
2023-04-16T23:00:40.798Z,102243.25
2023-04-16T23:03:08.973Z,102242.20
2023-04-16T23:05:37.125Z,102243.88
2023-04-16T23:08:05.269Z,102245.45
2023-04-16T23:10:33.265Z,102243.88
2023-04-16T23:13:01.187Z,102247.23
2023-04-16T23:15:29.555Z,102245.54
2023-04-16T23:17:57.719Z,102250.22
2023-04-16T23:20:26.160Z,102246.86
2023-04-16T23:22:54.138Z,102248.73
2023-04-16T23:25:25.649Z,102253.95
2023-04-16T23:27:53.562Z,102253.40
2023-04-16T23:30:21.590Z,102248.14
2023-04-16T23:32:49.682Z,102249.35
2023-04-16T23:35:22.880Z,102248.64
2023-04-16T23:37:50.963Z,102254.91
2023-04-16T23:40:18.878Z,102251.81
2023-04-16T23:42:46.887Z,102251.81
2023-04-16T23:45:14.890Z,102251.09
2023-04-16T23:47:42.976Z,102250.92
2023-04-16T23:50:11.765Z,102249.21
2023-04-16T23:52:40.096Z,102246.82
2023-04-16T23:55:08.730Z,102252.23
2023-04-16T23:57:36.641Z,102251.67
